Time;durP1;ratioP1;P1;durP2;ratioP2;P2;SDS_P1;SDS_P2;PMS_P1;PMS_P2;Temp;Humidity;BMP_temperature;BMP_pressure;BME280_temperature;BME280_humidity;BME280_pressure;Samples;Min_cycle;Max_cycle;Signal;HPM_P1;HPM_P2
2023/01/21 00:00:21;;;;;;;20.87;10.03;;;;;;;-2.90;100.00;101542.81;5015170;23;20243;-74
2023/01/21 00:02:49;;;;;;;23.97;9.63;;;;;;;-2.92;100.00;101541.91;5010636;28;20210;-74
2023/01/21 00:05:16;;;;;;;17.30;8.87;;;;;;;-2.97;100.00;101548.47;5010553;28;21455;-74
2023/01/21 00:07:42;;;;;;;23.83;9.87;;;;;;;-2.96;100.00;101557.00;4998354;28;20235;-74
2023/01/21 00:10:09;;;;;;;20.27;9.30;;;;;;;-3.00;100.00;101553.44;5023792;28;20216;-74
2023/01/21 00:12:37;;;;;;;19.77;8.27;;;;;;;-3.02;100.00;101559.28;4994131;28;20208;-75
2023/01/21 00:15:04;;;;;;;23.87;9.10;;;;;;;-3.01;100.00;101561.88;5001881;28;20208;-74
2023/01/21 00:17:34;;;;;;;17.13;9.17;;;;;;;-3.00;100.00;101563.66;5007872;28;20204;-74
2023/01/21 00:20:02;;;;;;;18.00;8.70;;;;;;;-2.96;100.00;101569.75;5022196;28;20241;-74
2023/01/21 00:22:30;;;;;;;17.10;8.60;;;;;;;-2.98;100.00;101567.13;5005754;28;20271;-74
2023/01/21 00:24:56;;;;;;;16.97;9.50;;;;;;;-2.98;100.00;101571.38;5019425;28;20200;-74
2023/01/21 00:27:22;;;;;;;22.30;10.67;;;;;;;-2.97;100.00;101563.78;5005740;28;20204;-74
2023/01/21 00:29:49;;;;;;;20.70;9.40;;;;;;;-2.98;100.00;101573.94;5005678;28;20229;-74
2023/01/21 00:32:15;;;;;;;28.63;10.37;;;;;;;-2.99;100.00;101569.63;5008911;28;20568;-74
2023/01/21 00:34:41;;;;;;;20.03;8.97;;;;;;;-2.99;100.00;101567.97;5007121;28;20208;-74
2023/01/21 00:37:09;;;;;;;16.07;8.57;;;;;;;-2.96;100.00;101572.31;5007982;28;20607;-74
2023/01/21 00:39:35;;;;;;;23.33;9.30;;;;;;;-2.96;100.00;101568.06;5007896;28;20237;-74
2023/01/21 00:42:03;;;;;;;21.27;9.37;;;;;;;-2.93;100.00;101570.75;5006366;28;20288;-74
2023/01/21 00:44:29;;;;;;;21.03;9.93;;;;;;;-2.93;100.00;101570.75;5007083;28;20208;-74
2023/01/21 00:46:56;;;;;;;22.80;10.27;;;;;;;-2.90;100.00;101563.25;5006549;28;20195;-74
2023/01/21 00:49:22;;;;;;;21.73;9.10;;;;;;;-2.87;100.00;101568.50;5013155;28;20223;-74
2023/01/21 00:51:49;;;;;;;17.87;9.60;;;;;;;-2.92;100.00;101562.31;5011487;28;20220;-74
2023/01/21 00:54:16;;;;;;;17.90;8.90;;;;;;;-2.89;100.00;101552.22;5019035;28;20715;-74
2023/01/21 00:56:43;;;;;;;25.60;11.03;;;;;;;-2.90;100.00;101547.94;5005976;28;20246;-74
2023/01/21 00:59:09;;;;;;;18.90;9.13;;;;;;;-2.92;100.00;101547.00;5011034;28;20205;-74
2023/01/21 01:01:37;;;;;;;18.93;8.83;;;;;;;-2.90;100.00;101557.28;5013021;28;20495;-74
2023/01/21 01:04:05;;;;;;;23.43;10.50;;;;;;;-2.90;100.00;101563.25;5005772;28;20205;-74
2023/01/21 01:06:32;;;;;;;24.00;10.20;;;;;;;-2.87;100.00;101562.50;5006169;28;20581;-74
2023/01/21 01:08:59;;;;;;;26.13;9.80;;;;;;;-2.87;100.00;101573.59;4988672;28;20208;-74
2023/01/21 01:11:27;;;;;;;20.70;9.93;;;;;;;-2.88;100.00;101570.97;5010671;28;20235;-74
2023/01/21 01:13:55;;;;;;;28.47;10.93;;;;;;;-2.91;100.00;101566.59;5008205;28;20216;-74
2023/01/21 01:16:23;;;;;;;24.53;10.97;;;;;;;-2.87;100.00;101575.25;5007629;28;20561;-74
2023/01/21 01:18:51;;;;;;;25.60;9.80;;;;;;;-2.86;100.00;101577.88;5005512;28;20204;-74
2023/01/21 01:21:20;;;;;;;24.33;10.03;;;;;;;-2.86;100.00;101592.34;5004161;28;20223;-75
2023/01/21 01:23:47;;;;;;;27.03;11.60;;;;;;;-2.86;100.00;101587.22;5007985;28;20205;-74
2023/01/21 01:26:15;;;;;;;26.60;11.37;;;;;;;-2.83;100.00;101589.91;5004681;28;20196;-74
2023/01/21 01:28:43;;;;;;;22.30;11.03;;;;;;;-2.84;100.00;101592.41;5017496;28;20208;-74
2023/01/21 01:31:13;;;;;;;23.17;10.97;;;;;;;-2.86;100.00;101590.66;5006072;28;20384;-74
2023/01/21 01:33:40;;;;;;;21.97;11.00;;;;;;;-2.87;100.00;101594.03;4985706;28;20217;-74
2023/01/21 01:36:10;;;;;;;24.13;11.17;;;;;;;-2.83;100.00;101600.13;5004715;28;20201;-74
2023/01/21 01:38:36;;;;;;;26.53;13.10;;;;;;;-2.85;100.00;101599.16;5002688;28;20205;-74
2023/01/21 01:41:04;;;;;;;24.00;10.43;;;;;;;-2.85;100.00;101601.72;5009855;28;20224;-74
2023/01/21 01:43:51;;;;;;;23.03;10.27;;;;;;;-2.84;100.00;101600.06;5016779;28;20207;-74
2023/01/21 01:46:18;;;;;;;27.87;11.23;;;;;;;-2.86;100.00;101607.66;4998578;28;20219;-74
2023/01/21 01:48:48;;;;;;;24.20;10.67;;;;;;;-2.86;100.00;101602.53;5009746;28;20212;-74
2023/01/21 01:51:18;;;;;;;19.73;9.77;;;;;;;-2.86;100.00;101610.19;5025695;28;20226;-74
2023/01/21 01:53:47;;;;;;;32.60;12.00;;;;;;;-2.83;100.00;101589.91;5005904;28;20228;-74
2023/01/21 01:56:14;;;;;;;27.77;11.77;;;;;;;-2.87;100.00;101591.47;5012160;28;20665;-74
2023/01/21 01:58:42;;;;;;;22.80;11.63;;;;;;;-2.88;100.00;101586.28;5009272;28;20201;-74
2023/01/21 02:01:11;;;;;;;21.33;9.93;;;;;;;-2.85;100.00;101594.06;5007685;28;20648;-74
2023/01/21 02:03:44;;;;;;;22.93;11.53;;;;;;;-2.86;100.00;101595.75;5021091;28;20205;-74
2023/01/21 02:06:10;;;;;;;24.47;9.97;;;;;;;-2.83;100.00;101602.69;5004110;28;20242;-74
2023/01/21 02:08:37;;;;;;;21.30;10.47;;;;;;;-2.81;100.00;101601.06;5006777;28;20204;-74
2023/01/21 02:11:10;;;;;;;29.20;11.67;;;;;;;-2.80;100.00;101600.25;4997270;28;20224;-74
2023/01/21 02:13:37;;;;;;;24.70;11.73;;;;;;;-2.81;100.00;101600.16;5008738;28;20204;-74
2023/01/21 02:16:14;;;;;;;21.93;11.63;;;;;;;-2.80;100.00;101605.34;5002392;28;20296;-74
2023/01/21 02:18:49;;;;;;;24.33;10.07;;;;;;;-2.78;100.00;101597.75;5004900;28;20207;-74
2023/01/21 02:21:48;;;;;;;21.97;9.93;;;;;;;-2.78;100.00;101601.22;5006336;28;20274;-74
2023/01/21 02:24:41;;;;;;;19.17;9.60;;;;;;;-2.79;100.00;101608.78;5006156;28;20201;-74
2023/01/21 02:27:26;;;;;;;22.20;10.33;;;;;;;-2.78;100.00;101600.31;5006477;28;20291;-74
2023/01/21 02:30:18;;;;;;;24.83;10.17;;;;;;;-2.78;100.00;101598.66;5019248;28;20220;-74
2023/01/21 02:33:20;;;;;;;23.80;10.17;;;;;;;-2.76;100.00;101601.25;5001508;28;20608;-74
2023/01/21 02:35:54;;;;;;;20.33;9.93;;;;;;;-2.77;100.00;101602.06;5004381;28;20199;-74
2023/01/21 02:38:28;;;;;;;24.27;10.57;;;;;;;-2.77;100.00;101604.63;4999132;28;20200;-74
2023/01/21 02:41:02;;;;;;;29.27;12.00;;;;;;;-2.80;100.00;101607.91;5001664;28;20703;-74
2023/01/21 02:43:36;;;;;;;25.70;10.80;;;;;;;-2.80;100.00;101602.78;5021673;28;20233;-74
2023/01/21 02:46:08;;;;;;;24.77;10.43;;;;;;;-2.80;100.00;101604.47;5023536;28;21179;-74
2023/01/21 02:48:42;;;;;;;24.93;10.93;;;;;;;-2.79;100.00;101604.56;5005474;28;20219;-74
2023/01/21 02:51:08;;;;;;;21.33;10.10;;;;;;;-2.74;100.00;101609.88;5005568;28;20221;-74
2023/01/21 02:53:36;;;;;;;21.07;10.60;;;;;;;-2.75;100.00;101605.56;5020396;28;20196;-74
2023/01/21 02:56:06;;;;;;;26.63;12.13;;;;;;;-2.77;100.00;101602.06;5011025;28;20588;-74
2023/01/21 02:58:35;;;;;;;26.77;11.20;;;;;;;-2.78;100.00;101611.41;5006567;28;20200;-74
2023/01/21 03:01:12;;;;;;;28.00;10.47;;;;;;;-2.79;100.00;101612.22;5009771;28;20220;-74
2023/01/21 03:03:56;;;;;;;26.40;11.47;;;;;;;-2.78;100.00;101610.53;5023794;28;20208;-74
2023/01/21 03:06:36;;;;;;;28.13;11.07;;;;;;;-2.77;100.00;101617.38;5002731;28;20232;-74
2023/01/21 03:09:11;;;;;;;25.23;11.80;;;;;;;-2.78;100.00;101619.09;5003860;28;20488;-74
2023/01/21 03:11:41;;;;;;;27.43;11.87;;;;;;;-2.78;100.00;101613.06;5010336;28;20475;-74
2023/01/21 03:17:06;;;;;;;26.47;11.77;;;;;;;-2.77;100.00;101617.38;5000014;28;20204;-74
2023/01/21 03:19:38;;;;;;;25.13;11.33;;;;;;;-2.77;100.00;101614.84;5009544;28;20221;-73
2023/01/21 03:22:09;;;;;;;26.57;10.50;;;;;;;-2.81;100.00;101618.03;5010294;28;20209;-74
2023/01/21 03:24:36;;;;;;;21.87;10.20;;;;;;;-2.78;100.00;101630.94;5010680;28;20299;-74
2023/01/21 03:27:08;;;;;;;24.03;9.97;;;;;;;-2.79;100.00;101631.78;5009541;28;20197;-74
2023/01/21 03:29:37;;;;;;;27.23;11.27;;;;;;;-2.77;100.00;101635.25;5007511;28;20339;-74
2023/01/21 03:32:08;;;;;;;27.73;10.27;;;;;;;-2.75;100.00;101639.63;4992096;28;20556;-74
2023/01/21 03:34:41;;;;;;;21.53;9.97;;;;;;;-2.76;100.00;101637.00;5007836;28;20565;-74
2023/01/21 03:37:13;;;;;;;22.07;8.43;;;;;;;-2.79;100.00;101640.28;5012779;28;20219;-74
2023/01/21 03:39:47;;;;;;;22.33;9.50;;;;;;;-2.85;100.00;101629.78;5011151;28;20619;-74
2023/01/21 03:42:14;;;;;;;21.23;9.27;;;;;;;-2.84;100.00;101633.25;5007684;28;20204;-74
2023/01/21 03:44:42;;;;;;;18.57;8.73;;;;;;;-2.84;100.00;101634.09;5014351;28;20208;-74
2023/01/21 03:47:18;;;;;;;23.40;8.07;;;;;;;-2.81;100.00;101634.25;5013022;28;20196;-74
2023/01/21 03:49:49;;;;;;;18.20;8.20;;;;;;;-2.82;100.00;101632.50;5007100;28;20619;-74
2023/01/21 03:52:20;;;;;;;22.47;9.67;;;;;;;-2.79;100.00;101632.63;4991498;28;20201;-74
2023/01/21 03:54:48;;;;;;;20.77;9.47;;;;;;;-2.77;100.00;101635.25;5010741;28;20240;-74
2023/01/21 03:57:14;;;;;;;23.10;8.67;;;;;;;-2.75;100.00;101641.31;5003035;28;20193;-74
2023/01/21 03:59:40;;;;;;;25.60;10.20;;;;;;;-2.76;100.00;101637.00;5000447;28;20315;-74
2023/01/21 04:02:07;;;;;;;20.60;9.07;;;;;;;-2.77;100.00;101641.22;5007490;28;20193;-74
2023/01/21 04:04:33;;;;;;;31.80;10.73;;;;;;;-2.79;100.00;101642.84;5006259;28;20211;-74
2023/01/21 04:07:02;;;;;;;16.50;7.33;;;;;;;-2.81;100.00;101644.47;5009943;28;20204;-74
2023/01/21 04:09:28;;;;;;;15.10;8.40;;;;;;;-2.82;100.00;101640.16;5004986;28;20193;-74
2023/01/21 04:11:55;;;;;;;19.57;9.17;;;;;;;-2.84;100.00;101641.75;5010821;28;20212;-74
2023/01/21 04:14:21;;;;;;;19.77;8.53;;;;;;;-2.82;100.00;101646.94;5024135;28;20691;-75
2023/01/21 04:16:47;;;;;;;19.53;7.63;;;;;;;-2.82;100.00;101641.84;5005877;28;20557;-74
2023/01/21 04:19:14;;;;;;;17.43;7.93;;;;;;;-2.84;100.00;101644.31;5013703;28;20197;-74
2023/01/21 04:21:40;;;;;;;15.50;8.20;;;;;;;-2.81;100.00;101644.47;5009644;28;20215;-74
2023/01/21 04:24:08;;;;;;;15.00;6.90;;;;;;;-2.81;100.00;101641.00;5003677;28;20222;-74
2023/01/21 04:26:34;;;;;;;13.43;7.00;;;;;;;-2.82;100.00;101640.16;5008863;28;20259;-74
2023/01/21 04:29:01;;;;;;;14.03;7.20;;;;;;;-2.83;100.00;101643.53;5030209;28;20207;-74
2023/01/21 04:31:28;;;;;;;17.70;7.90;;;;;;;-2.80;100.00;101643.63;5009265;28;20224;-74
2023/01/21 04:33:54;;;;;;;16.60;8.57;;;;;;;-2.77;100.00;101648.03;5007623;28;20196;-74
2023/01/21 04:36:21;;;;;;;16.10;8.07;;;;;;;-2.80;100.00;101643.63;5011326;28;20203;-74
2023/01/21 04:38:47;;;;;;;14.97;7.57;;;;;;;-2.81;100.00;101641.91;5028390;28;20223;-74
2023/01/21 04:41:15;;;;;;;15.43;7.10;;;;;;;-2.80;100.00;101648.75;5006940;28;20252;-74
2023/01/21 04:43:41;;;;;;;16.50;7.93;;;;;;;-2.78;100.00;101646.25;5005305;28;20219;-75
2023/01/21 04:46:07;;;;;;;16.43;7.43;;;;;;;-2.77;100.00;101651.44;5009270;28;20748;-74
2023/01/21 04:48:34;;;;;;;13.60;7.33;;;;;;;-2.76;100.00;101647.19;4996843;28;20196;-74
2023/01/21 04:51:00;;;;;;;12.43;7.60;;;;;;;-2.78;100.00;101647.16;5005478;28;20787;-74
2023/01/21 04:53:27;;;;;;;15.10;7.77;;;;;;;-2.79;100.00;101650.50;5005373;28;20216;-74
2023/01/21 04:55:53;;;;;;;16.27;7.17;;;;;;;-2.78;100.00;101649.72;5009756;28;20204;-74
2023/01/21 04:58:21;;;;;;;14.27;6.63;;;;;;;-2.79;100.00;101652.19;5010144;28;20204;-74
2023/01/21 05:00:47;;;;;;;19.23;7.47;;;;;;;-2.77;100.00;101655.69;5008139;28;20248;-74
2023/01/21 05:03:14;;;;;;;13.77;6.93;;;;;;;-2.77;100.00;101664.22;5007641;28;20196;-74
2023/01/21 05:05:40;;;;;;;12.50;7.00;;;;;;;-2.78;100.00;101662.47;5006175;28;20208;-74
2023/01/21 05:08:06;;;;;;;16.03;7.40;;;;;;;-2.74;100.00;101659.25;5013546;28;20192;-74
2023/01/21 05:10:33;;;;;;;19.47;7.40;;;;;;;-2.75;100.00;101666.84;5008772;28;20219;-74
2023/01/21 05:12:59;;;;;;;15.57;7.97;;;;;;;-2.76;100.00;101673.63;5007532;28;20703;-74
2023/01/21 05:15:27;;;;;;;13.67;7.07;;;;;;;-2.73;100.00;101677.97;5009081;28;20207;-74
2023/01/21 05:17:53;;;;;;;13.70;6.73;;;;;;;-2.75;100.00;101674.50;4992102;28;20270;-74
2023/01/21 05:20:19;;;;;;;15.53;7.13;;;;;;;-2.74;100.00;101679.66;5007420;28;20229;-74
2023/01/21 05:22:46;;;;;;;14.33;7.03;;;;;;;-2.71;100.00;101673.81;4988547;28;20205;-74
2023/01/21 05:25:13;;;;;;;16.97;6.97;;;;;;;-2.72;100.00;101672.94;5005379;28;20653;-74
2023/01/21 05:27:40;;;;;;;17.63;7.07;;;;;;;-2.73;100.00;101673.75;5005817;28;20215;-74
2023/01/21 05:30:07;;;;;;;17.13;7.30;;;;;;;-2.73;100.00;101673.75;5001538;28;20230;-74
2023/01/21 05:32:35;;;;;;;15.97;7.60;;;;;;;-2.70;100.00;101676.44;5013411;28;20215;-74
2023/01/21 05:35:03;;;;;;;14.90;7.77;;;;;;;-2.70;100.00;101679.00;5006964;28;20538;-74
2023/01/21 05:37:29;;;;;;;16.63;8.20;;;;;;;-2.69;100.00;101670.53;5009885;28;20204;-74
2023/01/21 05:39:57;;;;;;;12.40;7.30;;;;;;;-2.68;100.00;101677.38;5024854;28;20229;-74
2023/01/21 05:42:23;;;;;;;15.13;7.60;;;;;;;-2.67;100.00;101673.16;5006151;28;20189;-74
2023/01/21 05:44:50;;;;;;;19.47;8.30;;;;;;;-2.67;100.00;101675.72;5023476;28;20390;-74
2023/01/21 05:47:16;;;;;;;15.53;7.17;;;;;;;-2.67;100.00;101685.94;5008600;28;20208;-74
2023/01/21 05:49:44;;;;;;;14.23;6.80;;;;;;;-2.67;100.00;101691.03;5013564;28;20219;-74
2023/01/21 05:52:10;;;;;;;15.37;8.07;;;;;;;-2.66;100.00;101692.75;5006161;28;20414;-74
2023/01/21 05:54:36;;;;;;;18.30;7.30;;;;;;;-2.64;100.00;101697.94;5008291;28;20205;-74
2023/01/21 05:57:03;;;;;;;15.33;7.77;;;;;;;-2.64;100.00;101696.25;5010846;28;20568;-74
2023/01/21 05:59:29;;;;;;;14.00;7.37;;;;;;;-2.64;100.00;101688.59;5021175;28;20208;-74
2023/01/21 06:01:55;;;;;;;13.27;6.70;;;;;;;-2.63;100.00;101687.81;5005356;28;20205;-74
2023/01/21 06:04:27;;;;;;;18.27;7.03;;;;;;;-2.62;100.00;101691.22;5010530;28;20192;-74
2023/01/21 06:06:54;;;;;;;13.20;7.07;;;;;;;-2.60;100.00;101685.41;5006630;28;20621;-74
2023/01/21 06:09:21;;;;;;;15.20;7.63;;;;;;;-2.61;100.00;101681.09;5008047;28;20200;-74
2023/01/21 06:11:47;;;;;;;17.70;7.90;;;;;;;-2.60;100.00;101682.84;5005327;28;20568;-74
2023/01/21 06:14:14;;;;;;;12.37;7.20;;;;;;;-2.59;100.00;101669.25;5012593;28;20653;-74
2023/01/21 06:16:40;;;;;;;13.43;7.47;;;;;;;-2.57;100.00;101679.53;4989491;28;20208;-74
2023/01/21 06:19:06;;;;;;;15.57;7.60;;;;;;;-2.58;100.00;101677.81;5004904;28;20262;-74
2023/01/21 06:21:32;;;;;;;17.83;8.33;;;;;;;-2.55;100.00;101681.38;5015957;28;21599;-74
2023/01/21 06:24:01;;;;;;;14.47;7.60;;;;;;;-2.56;100.00;101683.84;5011317;28;20200;-74
2023/01/21 06:26:27;;;;;;;17.20;7.10;;;;;;;-2.54;100.00;101680.53;5011084;28;20302;-74
2023/01/21 06:28:55;;;;;;;15.50;6.97;;;;;;;-2.54;100.00;101689.91;5006936;28;20279;-74
2023/01/21 06:31:21;;;;;;;20.70;7.27;;;;;;;-2.55;100.00;101693.25;5009620;28;20227;-74
2023/01/21 06:33:48;;;;;;;17.57;6.90;;;;;;;-2.52;100.00;101701.91;5014197;28;20303;-74
2023/01/21 06:36:14;;;;;;;15.43;7.40;;;;;;;-2.51;100.00;101695.16;5007533;28;20201;-74
2023/01/21 06:38:41;;;;;;;16.23;8.20;;;;;;;-2.50;100.00;101699.44;5008875;28;20212;-74
2023/01/21 06:41:08;;;;;;;16.37;8.70;;;;;;;-2.51;100.00;101700.25;5032417;28;20364;-74
2023/01/21 06:43:35;;;;;;;12.37;7.37;;;;;;;-2.49;100.00;101698.63;5009923;28;20212;-74
2023/01/21 06:46:01;;;;;;;14.87;7.57;;;;;;;-2.49;100.00;101690.97;5013627;28;20216;-74
2023/01/21 06:48:28;;;;;;;14.93;8.03;;;;;;;-2.50;100.00;101695.22;5010591;28;20687;-74
2023/01/21 06:50:54;;;;;;;17.73;7.83;;;;;;;-2.49;100.00;101685.88;4995543;28;20218;-74
2023/01/21 06:53:20;;;;;;;13.73;7.33;;;;;;;-2.50;100.00;101689.22;5012057;28;20223;-74
2023/01/21 06:55:47;;;;;;;15.63;7.60;;;;;;;-2.50;100.00;101697.78;5010944;28;20201;-74
2023/01/21 06:58:14;;;;;;;15.00;8.63;;;;;;;-2.49;100.00;101691.84;4994295;28;20203;-74
2023/01/21 07:00:41;;;;;;;20.03;8.70;;;;;;;-2.50;100.00;101695.22;4989853;28;20236;-74
2023/01/21 07:03:08;;;;;;;15.33;7.67;;;;;;;-2.51;100.00;101702.81;5003428;28;20639;-74
2023/01/21 07:05:34;;;;;;;15.27;7.93;;;;;;;-2.50;100.00;101702.88;5010299;28;20196;-74
2023/01/21 07:08:01;;;;;;;19.30;8.80;;;;;;;-2.51;100.00;101690.91;5009667;28;20208;-74
2023/01/21 07:10:27;;;;;;;15.30;8.33;;;;;;;-2.52;100.00;101711.25;5010570;28;20239;-74
2023/01/21 07:12:54;;;;;;;18.07;7.63;;;;;;;-2.51;100.00;101702.81;5012433;28;20213;-74
2023/01/21 07:15:21;;;;;;;16.83;8.03;;;;;;;-2.51;100.00;101698.56;4996437;28;20211;-74
2023/01/21 07:17:48;;;;;;;15.53;8.17;;;;;;;-2.52;100.00;101711.25;5008996;28;20208;-74
2023/01/21 07:20:15;;;;;;;15.10;7.73;;;;;;;-2.50;100.00;101704.53;5011724;28;20224;-74
2023/01/21 07:22:41;;;;;;;13.43;7.77;;;;;;;-2.49;100.00;101701.19;4996468;28;20209;-74
2023/01/21 07:25:08;;;;;;;17.90;7.83;;;;;;;-2.52;100.00;101706.16;5010565;28;20189;-74
2023/01/21 07:27:35;;;;;;;12.10;6.77;;;;;;;-2.49;100.00;101699.50;5007234;28;20204;-74
2023/01/21 07:30:01;;;;;;;10.73;6.93;;;;;;;-2.49;100.00;101699.50;5009055;28;20228;-74
2023/01/21 07:32:29;;;;;;;17.43;9.03;;;;;;;-2.49;100.00;101701.19;5007349;28;20315;-74
2023/01/21 07:34:55;;;;;;;18.87;9.97;;;;;;;-2.46;100.00;101698.78;5010113;28;20205;-74
2023/01/21 07:37:21;;;;;;;16.63;8.10;;;;;;;-2.48;100.00;101700.38;5007646;28;20205;-74
2023/01/21 07:39:48;;;;;;;14.83;8.10;;;;;;;-2.46;100.00;101698.78;5008511;28;20225;-74
2023/01/21 07:42:14;;;;;;;13.17;7.20;;;;;;;-2.46;100.00;101698.78;4993091;28;20219;-74
2023/01/21 07:44:42;;;;;;;14.37;7.13;;;;;;;-2.45;100.00;101700.50;5011235;28;20343;-74
2023/01/21 07:47:09;;;;;;;13.83;8.03;;;;;;;-2.43;100.00;101698.03;5011580;28;20204;-74
2023/01/21 07:49:37;;;;;;;13.53;7.77;;;;;;;-2.40;100.00;101703.28;5009473;28;20221;-74
2023/01/21 07:52:03;;;;;;;15.20;7.67;;;;;;;-2.36;100.00;101695.78;5009568;28;20212;-74
2023/01/21 07:54:29;;;;;;;18.87;8.43;;;;;;;-2.35;100.00;101704.34;5011002;28;20219;-74
2023/01/21 07:56:56;;;;;;;16.83;8.53;;;;;;;-2.31;100.00;101696.00;5023710;28;20215;-74
2023/01/21 07:59:22;;;;;;;25.20;8.87;;;;;;;-2.28;100.00;101702.13;5013480;28;20608;-74
2023/01/21 08:01:49;;;;;;;18.60;8.30;;;;;;;-2.25;100.00;101698.84;4993682;28;20584;-74
2023/01/21 08:04:15;;;;;;;19.80;9.57;;;;;;;-2.22;100.00;101693.84;5007792;28;20192;-74
2023/01/21 08:06:43;;;;;;;23.63;8.47;;;;;;;-2.21;100.00;101699.84;5014493;28;20204;-74
2023/01/21 08:09:10;;;;;;;18.23;8.33;;;;;;;-2.19;100.00;101699.09;5008072;28;20212;-74
2023/01/21 08:11:36;;;;;;;16.27;8.80;;;;;;;-2.16;100.00;101699.22;4991002;28;20239;-74
2023/01/21 08:14:02;;;;;;;18.47;8.73;;;;;;;-2.17;100.00;101705.13;5010717;28;20227;-74
2023/01/21 08:16:29;;;;;;;16.27;9.10;;;;;;;-2.12;100.00;101696.00;5012489;28;20197;-74
2023/01/21 08:18:55;;;;;;;16.30;8.83;;;;;;;-2.10;100.00;101696.06;5012124;28;20549;-74
2023/01/21 08:21:21;;;;;;;19.77;10.47;;;;;;;-2.09;100.00;101697.81;5005991;28;20303;-74
2023/01/21 08:23:49;;;;;;;18.73;8.63;;;;;;;-2.03;100.00;101686.97;5011911;28;20200;-74
2023/01/21 08:26:15;;;;;;;17.43;8.20;;;;;;;-2.03;100.00;101692.94;5002527;28;20204;-74
2023/01/21 08:28:42;;;;;;;19.43;8.43;;;;;;;-2.00;100.00;101687.97;5002794;28;20200;-74
2023/01/21 08:31:10;;;;;;;20.20;9.77;;;;;;;-1.95;100.00;101685.63;5001731;28;20216;-75
2023/01/21 08:33:37;;;;;;;21.00;8.73;;;;;;;-1.94;100.00;101689.91;5008304;28;20795;-74
2023/01/21 08:36:06;;;;;;;16.07;9.17;;;;;;;-1.88;100.00;101694.41;5021577;28;20212;-74
2023/01/21 08:38:32;;;;;;;19.17;9.27;;;;;;;-1.88;100.00;101695.28;5009163;28;20224;-74
2023/01/21 08:41:00;;;;;;;17.67;8.30;;;;;;;-1.83;100.00;101688.69;5026720;28;20223;-74
2023/01/21 08:43:27;;;;;;;16.03;8.63;;;;;;;-1.87;100.00;101697.03;5012438;28;20204;-74
2023/01/21 08:45:55;;;;;;;17.77;9.30;;;;;;;-1.80;100.00;101693.03;5022196;28;20613;-74
2023/01/21 08:48:22;;;;;;;14.03;7.73;;;;;;;-1.76;100.00;101689.78;5023102;28;20723;-74
2023/01/21 08:50:48;;;;;;;17.67;8.87;;;;;;;-1.78;100.00;101693.97;5008398;28;20228;-74
2023/01/21 08:53:15;;;;;;;22.50;11.80;;;;;;;-1.80;100.00;101700.72;5005921;28;20652;-74
2023/01/21 08:55:41;;;;;;;16.90;9.33;;;;;;;-1.84;100.00;101689.50;5004457;28;20566;-74
2023/01/21 08:58:09;;;;;;;22.73;10.17;;;;;;;-1.81;100.00;101686.16;5009568;28;20200;-74
2023/01/21 09:00:35;;;;;;;14.50;8.23;;;;;;;-1.74;100.00;101688.19;4991451;28;20271;-74
2023/01/21 09:03:02;;;;;;;16.83;8.00;;;;;;;-1.76;100.00;101690.69;5017261;28;20696;-74
2023/01/21 09:05:29;;;;;;;18.63;8.77;;;;;;;-1.74;100.00;101689.06;5026879;28;20214;-74
2023/01/21 09:07:55;;;;;;;16.77;9.13;;;;;;;-1.74;100.00;101681.38;4991601;28;20207;-74
2023/01/21 09:13:05;;;;;;;17.17;8.70;;;;;;;-1.68;100.00;101679.91;4996409;28;20530;-74
2023/01/21 09:15:37;;;;;;;16.43;7.73;;;;;;;-1.69;100.00;101684.13;5006308;28;20201;-74
2023/01/21 09:18:04;;;;;;;15.40;8.17;;;;;;;-1.66;100.00;101679.13;5007673;28;20255;-74
2023/01/21 09:20:30;;;;;;;15.67;7.83;;;;;;;-1.57;100.00;101674.38;4983301;28;22151;-74
2023/01/21 09:22:57;;;;;;;16.40;7.47;;;;;;;-1.56;100.00;101682.94;5001215;28;20202;-74
2023/01/21 09:25:24;;;;;;;14.57;8.17;;;;;;;-1.49;100.00;101691.75;5001856;28;20208;-75
2023/01/21 09:27:50;;;;;;;15.30;7.83;;;;;;;-1.47;100.00;101688.44;5007213;28;20204;-74
2023/01/21 09:30:17;;;;;;;16.17;8.53;;;;;;;-1.46;100.00;101694.41;5005852;28;20220;-74
2023/01/21 09:32:45;;;;;;;15.43;8.20;;;;;;;-1.43;100.00;101692.84;5004418;28;20403;-74
2023/01/21 09:35:11;;;;;;;12.40;7.47;;;;;;;-1.37;100.00;101693.09;5012427;28;20351;-74
2023/01/21 09:37:37;;;;;;;14.33;7.60;;;;;;;-1.33;100.00;101682.16;5006505;28;20580;-75
2023/01/21 09:40:04;;;;;;;14.50;7.80;;;;;;;-1.26;100.00;101696.09;5001345;28;20421;-74
2023/01/21 09:42:32;;;;;;;14.93;7.90;;;;;;;-1.22;100.00;101694.50;4997057;28;20203;-74
2023/01/21 09:45:01;;;;;;;15.20;7.53;;;;;;;-1.12;100.00;101691.50;5004158;28;20204;-74
2023/01/21 09:47:33;;;;;;;11.47;6.83;;;;;;;-1.08;100.00;101687.38;5001709;28;20192;-74
2023/01/21 09:50:05;;;;;;;13.27;6.67;;;;;;;-1.06;100.00;101696.84;5005602;28;20224;-74
2023/01/21 09:52:39;;;;;;;10.90;6.80;;;;;;;-0.99;100.00;101690.28;5002638;28;20581;-74
2023/01/21 09:55:14;;;;;;;16.73;7.23;;;;;;;-0.90;100.00;101695.75;5005274;28;20216;-74
2023/01/21 09:58:06;;;;;;;13.70;7.63;;;;;;;-0.99;100.00;101691.16;5002099;28;20200;-74
2023/01/21 10:00:40;;;;;;;10.13;6.40;;;;;;;-0.92;100.00;101688.81;5024709;28;20863;-75
2023/01/21 10:03:18;;;;;;;15.00;7.63;;;;;;;-0.84;100.00;101688.31;5004623;28;20206;-75
2023/01/21 10:05:58;;;;;;;11.87;7.23;;;;;;;-0.90;100.00;101688.06;5020359;28;20208;-74
2023/01/21 10:08:31;;;;;;;12.53;7.00;;;;;;;-0.86;100.00;101682.25;5021927;28;20196;-74
2023/01/21 10:11:10;;;;;;;12.70;7.00;;;;;;;-0.77;100.00;101681.72;5025894;28;20220;-74
2023/01/21 10:13:45;;;;;;;9.80;6.43;;;;;;;-0.72;100.00;101679.31;5022850;28;20268;-74
2023/01/21 10:16:18;;;;;;;13.73;7.40;;;;;;;-0.72;100.00;101679.31;4994715;28;20259;-75
2023/01/21 10:18:50;;;;;;;13.07;7.50;;;;;;;-0.68;100.00;101676.06;5012045;28;20201;-75
2023/01/21 10:21:29;;;;;;;13.70;7.70;;;;;;;-0.66;100.00;101672.75;5011804;28;20863;-75
2023/01/21 10:23:59;;;;;;;14.07;7.83;;;;;;;-0.55;100.00;101669.69;5021628;28;20192;-75
2023/01/21 10:26:27;;;;;;;15.70;7.73;;;;;;;-0.54;100.00;101669.75;4991816;28;20213;-75
2023/01/21 10:28:55;;;;;;;14.37;7.30;;;;;;;-0.50;100.00;101661.34;5010206;28;20232;-75
2023/01/21 10:31:24;;;;;;;11.43;6.80;;;;;;;-0.48;100.00;101658.84;4994858;28;20215;-75
2023/01/21 10:33:50;;;;;;;10.13;6.10;;;;;;;-0.45;100.00;101658.97;5010840;28;20224;-75
2023/01/21 10:36:55;;;;;;;10.83;5.70;;;;;;;-0.41;100.00;101663.38;5006605;28;20192;-75
2023/01/21 10:39:33;;;;;;;12.20;6.57;;;;;;;-0.35;100.00;101653.34;5003813;28;20213;-75
2023/01/21 10:42:14;;;;;;;9.97;5.70;;;;;;;-0.27;100.00;101654.47;5015192;28;20282;-76
2023/01/21 10:44:49;;;;;;;12.57;6.50;;;;;;;-0.31;100.00;101656.88;5013326;28;20703;-75
2023/01/21 10:47:26;;;;;;;9.73;6.13;;;;;;;-0.32;100.00;101657.69;5009051;28;20215;-75
2023/01/21 10:50:03;;;;;;;11.33;6.57;;;;;;;-0.22;100.00;101654.63;5006772;28;20608;-75
2023/01/21 10:52:43;;;;;;;10.80;6.73;;;;;;;-0.18;100.00;101648.78;5011382;28;20200;-75
2023/01/21 10:55:22;;;;;;;13.43;7.30;;;;;;;-0.22;100.00;101652.06;5020834;28;20385;-75
2023/01/21 10:57:56;;;;;;;11.87;6.40;;;;;;;-0.19;100.00;101641.94;5015572;28;20207;-75
2023/01/21 11:00:25;;;;;;;13.37;7.33;;;;;;;-0.20;100.00;101646.16;5005189;28;20841;-75
2023/01/21 11:02:55;;;;;;;12.87;7.47;;;;;;;-0.22;100.00;101644.38;5008354;28;20300;-75
2023/01/21 11:05:24;;;;;;;12.93;6.97;;;;;;;-0.09;100.00;101645.66;5007163;28;20207;-75
2023/01/21 11:07:52;;;;;;;11.47;6.17;;;;;;;-0.07;100.00;101641.47;5007065;28;20201;-75
2023/01/21 11:10:22;;;;;;;10.27;6.03;;;;;;;0.01;100.00;101629.78;5009261;28;20220;-75
2023/01/21 11:12:48;;;;;;;12.87;6.63;;;;;;;0.15;100.00;101631.09;5008838;28;20196;-75
2023/01/21 11:15:18;;;;;;;13.33;7.00;;;;;;;0.18;100.00;101623.50;5012616;28;20234;-75
2023/01/21 11:17:46;;;;;;;13.40;7.17;;;;;;;0.13;100.00;101626.75;5003553;28;20196;-75
2023/01/21 11:20:21;;;;;;;17.50;9.37;;;;;;;0.14;100.00;101619.09;4991220;28;20224;-75